sensor_id;sensor_type;location;lat;lon;timestamp;P1;durP1;ratioP1;P2;durP2;ratioP2
82000;SDS011;71510;50.558;7.258;2023-11-22T00:02:22;6.55;;;5.42;;
82000;SDS011;71510;50.558;7.258;2023-11-22T00:04:51;6.33;;;5.53;;
82000;SDS011;71510;50.558;7.258;2023-11-22T00:07:18;6.87;;;5.20;;
82000;SDS011;71510;50.558;7.258;2023-11-22T00:09:45;7.47;;;5.30;;
82000;SDS011;71510;50.558;7.258;2023-11-22T00:12:13;7.03;;;6.22;;
82000;SDS011;71510;50.558;7.258;2023-11-22T00:14:42;9.08;;;6.03;;
82000;SDS011;71510;50.558;7.258;2023-11-22T00:17:09;7.83;;;5.60;;
82000;SDS011;71510;50.558;7.258;2023-11-22T00:19:37;7.08;;;5.60;;
82000;SDS011;71510;50.558;7.258;2023-11-22T00:22:04;7.08;;;6.22;;
82000;SDS011;71510;50.558;7.258;2023-11-22T00:24:33;7.70;;;5.92;;
82000;SDS011;71510;50.558;7.258;2023-11-22T00:27:01;8.30;;;6.55;;
82000;SDS011;71510;50.558;7.258;2023-11-22T00:29:29;7.15;;;5.75;;
82000;SDS011;71510;50.558;7.258;2023-11-22T00:31:56;9.55;;;6.08;;
82000;SDS011;71510;50.558;7.258;2023-11-22T00:34:23;8.58;;;5.50;;
82000;SDS011;71510;50.558;7.258;2023-11-22T00:36:51;6.03;;;4.45;;
82000;SDS011;71510;50.558;7.258;2023-11-22T00:39:18;7.50;;;4.85;;
82000;SDS011;71510;50.558;7.258;2023-11-22T00:41:45;5.65;;;4.80;;
82000;SDS011;71510;50.558;7.258;2023-11-22T00:44:13;6.97;;;4.87;;
82000;SDS011;71510;50.558;7.258;2023-11-22T00:46:40;8.25;;;4.78;;
82000;SDS011;71510;50.558;7.258;2023-11-22T00:49:08;5.62;;;4.42;;
82000;SDS011;71510;50.558;7.258;2023-11-22T00:51:35;4.92;;;4.20;;
82000;SDS011;71510;50.558;7.258;2023-11-22T00:54:03;5.67;;;4.50;;
82000;SDS011;71510;50.558;7.258;2023-11-22T00:56:30;7.65;;;5.20;;
82000;SDS011;71510;50.558;7.258;2023-11-22T00:58:58;6.05;;;4.72;;
82000;SDS011;71510;50.558;7.258;2023-11-22T01:01:26;6.55;;;5.22;;
82000;SDS011;71510;50.558;7.258;2023-11-22T01:03:53;6.17;;;5.47;;
82000;SDS011;71510;50.558;7.258;2023-11-22T01:06:20;7.62;;;5.78;;
82000;SDS011;71510;50.558;7.258;2023-11-22T01:08:49;7.70;;;5.60;;
82000;SDS011;71510;50.558;7.258;2023-11-22T01:11:17;7.28;;;5.70;;
82000;SDS011;71510;50.558;7.258;2023-11-22T01:13:44;7.78;;;6.15;;
82000;SDS011;71510;50.558;7.258;2023-11-22T01:16:12;9.25;;;5.85;;
82000;SDS011;71510;50.558;7.258;2023-11-22T01:18:40;7.22;;;5.35;;
82000;SDS011;71510;50.558;7.258;2023-11-22T01:21:07;7.72;;;6.10;;
82000;SDS011;71510;50.558;7.258;2023-11-22T01:23:34;6.80;;;6.10;;
82000;SDS011;71510;50.558;7.258;2023-11-22T01:26:02;8.18;;;5.65;;
82000;SDS011;71510;50.558;7.258;2023-11-22T01:28:30;8.03;;;6.50;;
82000;SDS011;71510;50.558;7.258;2023-11-22T01:30:59;9.90;;;6.60;;
82000;SDS011;71510;50.558;7.258;2023-11-22T01:33:28;11.85;;;7.47;;
82000;SDS011;71510;50.558;7.258;2023-11-22T01:35:55;8.63;;;6.95;;
82000;SDS011;71510;50.558;7.258;2023-11-22T01:38:23;8.70;;;7.80;;
82000;SDS011;71510;50.558;7.258;2023-11-22T01:40:51;13.32;;;7.35;;
82000;SDS011;71510;50.558;7.258;2023-11-22T01:43:19;9.88;;;7.67;;
82000;SDS011;71510;50.558;7.258;2023-11-22T01:45:46;9.23;;;7.58;;
82000;SDS011;71510;50.558;7.258;2023-11-22T01:48:13;7.95;;;7.15;;
82000;SDS011;71510;50.558;7.258;2023-11-22T01:50:46;9.63;;;7.15;;
82000;SDS011;71510;50.558;7.258;2023-11-22T01:53:10;8.78;;;6.97;;
82000;SDS011;71510;50.558;7.258;2023-11-22T01:55:39;9.13;;;7.35;;
82000;SDS011;71510;50.558;7.258;2023-11-22T01:58:06;10.68;;;7.60;;
82000;SDS011;71510;50.558;7.258;2023-11-22T02:00:49;12.03;;;7.58;;
82000;SDS011;71510;50.558;7.258;2023-11-22T02:03:18;8.93;;;6.62;;
82000;SDS011;71510;50.558;7.258;2023-11-22T02:05:45;9.33;;;7.50;;
82000;SDS011;71510;50.558;7.258;2023-11-22T02:08:13;9.53;;;7.05;;
82000;SDS011;71510;50.558;7.258;2023-11-22T02:10:40;11.57;;;7.10;;
82000;SDS011;71510;50.558;7.258;2023-11-22T02:13:08;9.90;;;7.37;;
82000;SDS011;71510;50.558;7.258;2023-11-22T02:15:36;10.18;;;7.03;;
82000;SDS011;71510;50.558;7.258;2023-11-22T02:18:04;9.58;;;7.78;;
82000;SDS011;71510;50.558;7.258;2023-11-22T02:20:33;13.28;;;8.03;;
82000;SDS011;71510;50.558;7.258;2023-11-22T02:23:03;11.85;;;8.35;;
82000;SDS011;71510;50.558;7.258;2023-11-22T02:25:29;12.60;;;8.50;;
82000;SDS011;71510;50.558;7.258;2023-11-22T02:27:56;11.03;;;7.53;;
82000;SDS011;71510;50.558;7.258;2023-11-22T02:30:24;8.90;;;8.00;;
82000;SDS011;71510;50.558;7.258;2023-11-22T02:32:51;12.90;;;9.05;;
82000;SDS011;71510;50.558;7.258;2023-11-22T02:35:19;10.25;;;8.43;;
82000;SDS011;71510;50.558;7.258;2023-11-22T02:37:46;12.37;;;9.80;;
82000;SDS011;71510;50.558;7.258;2023-11-22T02:40:16;12.82;;;10.48;;
82000;SDS011;71510;50.558;7.258;2023-11-22T02:42:52;11.73;;;10.20;;
82000;SDS011;71510;50.558;7.258;2023-11-22T02:45:15;13.38;;;10.78;;
82000;SDS011;71510;50.558;7.258;2023-11-22T02:47:44;15.28;;;10.65;;
82000;SDS011;71510;50.558;7.258;2023-11-22T02:50:13;12.37;;;11.08;;
82000;SDS011;71510;50.558;7.258;2023-11-22T02:52:40;11.95;;;10.48;;
82000;SDS011;71510;50.558;7.258;2023-11-22T02:55:08;11.20;;;9.78;;
82000;SDS011;71510;50.558;7.258;2023-11-22T02:57:38;12.58;;;11.03;;
82000;SDS011;71510;50.558;7.258;2023-11-22T03:00:09;14.15;;;10.58;;
82000;SDS011;71510;50.558;7.258;2023-11-22T03:02:40;13.58;;;11.18;;
82000;SDS011;71510;50.558;7.258;2023-11-22T03:05:08;14.28;;;11.00;;
82000;SDS011;71510;50.558;7.258;2023-11-22T03:07:38;14.35;;;10.82;;
82000;SDS011;71510;50.558;7.258;2023-11-22T03:10:07;12.80;;;10.90;;
82000;SDS011;71510;50.558;7.258;2023-11-22T03:12:34;12.63;;;10.72;;
82000;SDS011;71510;50.558;7.258;2023-11-22T03:15:11;13.58;;;10.82;;
82000;SDS011;71510;50.558;7.258;2023-11-22T03:17:38;12.13;;;10.70;;
82000;SDS011;71510;50.558;7.258;2023-11-22T03:20:06;13.98;;;12.13;;
82000;SDS011;71510;50.558;7.258;2023-11-22T03:22:35;13.03;;;10.75;;
82000;SDS011;71510;50.558;7.258;2023-11-22T03:25:02;11.68;;;10.48;;
82000;SDS011;71510;50.558;7.258;2023-11-22T03:27:30;13.38;;;10.43;;
82000;SDS011;71510;50.558;7.258;2023-11-22T03:29:59;14.18;;;10.53;;
82000;SDS011;71510;50.558;7.258;2023-11-22T03:32:26;13.32;;;10.58;;
82000;SDS011;71510;50.558;7.258;2023-11-22T03:34:55;10.70;;;9.53;;
82000;SDS011;71510;50.558;7.258;2023-11-22T03:37:23;12.60;;;10.00;;
82000;SDS011;71510;50.558;7.258;2023-11-22T03:39:50;13.68;;;10.20;;
82000;SDS011;71510;50.558;7.258;2023-11-22T03:42:18;14.40;;;10.10;;
82000;SDS011;71510;50.558;7.258;2023-11-22T03:44:45;13.93;;;9.83;;
82000;SDS011;71510;50.558;7.258;2023-11-22T03:47:13;14.98;;;9.78;;
82000;SDS011;71510;50.558;7.258;2023-11-22T03:49:41;10.88;;;9.25;;
82000;SDS011;71510;50.558;7.258;2023-11-22T03:52:10;12.18;;;9.63;;
82000;SDS011;71510;50.558;7.258;2023-11-22T03:54:37;13.05;;;10.18;;
82000;SDS011;71510;50.558;7.258;2023-11-22T03:57:05;11.43;;;10.23;;
82000;SDS011;71510;50.558;7.258;2023-11-22T03:59:34;13.68;;;10.38;;
82000;SDS011;71510;50.558;7.258;2023-11-22T04:02:01;13.65;;;10.55;;
82000;SDS011;71510;50.558;7.258;2023-11-22T04:04:29;14.98;;;9.43;;
82000;SDS011;71510;50.558;7.258;2023-11-22T04:06:56;12.93;;;9.60;;
82000;SDS011;71510;50.558;7.258;2023-11-22T04:09:24;12.05;;;9.95;;
82000;SDS011;71510;50.558;7.258;2023-11-22T04:11:51;13.43;;;9.95;;
82000;SDS011;71510;50.558;7.258;2023-11-22T04:14:18;15.18;;;9.68;;
82000;SDS011;71510;50.558;7.258;2023-11-22T04:16:48;13.68;;;9.80;;
82000;SDS011;71510;50.558;7.258;2023-11-22T04:19:15;11.48;;;9.55;;
82000;SDS011;71510;50.558;7.258;2023-11-22T04:21:42;12.93;;;8.98;;
82000;SDS011;71510;50.558;7.258;2023-11-22T04:24:10;13.13;;;9.60;;
82000;SDS011;71510;50.558;7.258;2023-11-22T04:26:38;13.30;;;9.70;;
82000;SDS011;71510;50.558;7.258;2023-11-22T04:29:05;10.30;;;8.28;;
82000;SDS011;71510;50.558;7.258;2023-11-22T04:31:33;13.75;;;9.25;;
82000;SDS011;71510;50.558;7.258;2023-11-22T04:34:00;12.80;;;9.23;;
82000;SDS011;71510;50.558;7.258;2023-11-22T04:36:28;19.32;;;9.60;;
82000;SDS011;71510;50.558;7.258;2023-11-22T04:38:55;10.90;;;9.48;;
82000;SDS011;71510;50.558;7.258;2023-11-22T04:41:23;14.53;;;9.65;;
82000;SDS011;71510;50.558;7.258;2023-11-22T04:43:52;11.50;;;9.03;;
82000;SDS011;71510;50.558;7.258;2023-11-22T04:46:19;11.00;;;8.55;;
82000;SDS011;71510;50.558;7.258;2023-11-22T04:48:46;11.83;;;8.73;;
82000;SDS011;71510;50.558;7.258;2023-11-22T04:51:15;11.15;;;9.63;;
82000;SDS011;71510;50.558;7.258;2023-11-22T04:53:43;10.85;;;9.10;;
82000;SDS011;71510;50.558;7.258;2023-11-22T04:56:11;12.68;;;10.95;;
82000;SDS011;71510;50.558;7.258;2023-11-22T04:58:38;11.63;;;9.13;;
82000;SDS011;71510;50.558;7.258;2023-11-22T05:01:05;12.20;;;9.68;;
82000;SDS011;71510;50.558;7.258;2023-11-22T05:03:34;9.45;;;8.45;;
82000;SDS011;71510;50.558;7.258;2023-11-22T05:06:03;11.63;;;9.45;;
82000;SDS011;71510;50.558;7.258;2023-11-22T05:08:30;14.25;;;8.73;;
82000;SDS011;71510;50.558;7.258;2023-11-22T05:10:58;12.80;;;9.83;;
82000;SDS011;71510;50.558;7.258;2023-11-22T05:13:25;9.73;;;8.38;;
82000;SDS011;71510;50.558;7.258;2023-11-22T05:15:52;10.35;;;8.25;;
82000;SDS011;71510;50.558;7.258;2023-11-22T05:18:19;15.68;;;9.10;;
82000;SDS011;71510;50.558;7.258;2023-11-22T05:20:47;11.40;;;8.85;;
82000;SDS011;71510;50.558;7.258;2023-11-22T05:23:15;10.95;;;8.75;;
82000;SDS011;71510;50.558;7.258;2023-11-22T05:25:42;9.95;;;8.60;;
82000;SDS011;71510;50.558;7.258;2023-11-22T05:28:10;12.93;;;9.28;;
82000;SDS011;71510;50.558;7.258;2023-11-22T05:30:37;15.13;;;9.75;;
82000;SDS011;71510;50.558;7.258;2023-11-22T05:33:04;12.18;;;9.55;;
82000;SDS011;71510;50.558;7.258;2023-11-22T05:35:32;12.15;;;9.18;;
82000;SDS011;71510;50.558;7.258;2023-11-22T05:37:59;11.12;;;8.83;;
82000;SDS011;71510;50.558;7.258;2023-11-22T05:40:27;10.40;;;9.30;;
82000;SDS011;71510;50.558;7.258;2023-11-22T05:42:54;10.13;;;8.98;;
82000;SDS011;71510;50.558;7.258;2023-11-22T05:45:21;16.15;;;10.25;;
82000;SDS011;71510;50.558;7.258;2023-11-22T05:47:50;15.60;;;9.93;;
82000;SDS011;71510;50.558;7.258;2023-11-22T05:50:17;13.62;;;9.68;;
82000;SDS011;71510;50.558;7.258;2023-11-22T05:52:44;15.23;;;8.15;;
82000;SDS011;71510;50.558;7.258;2023-11-22T05:55:11;10.25;;;7.08;;
82000;SDS011;71510;50.558;7.258;2023-11-22T05:57:40;10.90;;;7.67;;
82000;SDS011;71510;50.558;7.258;2023-11-22T06:00:08;13.05;;;7.75;;
82000;SDS011;71510;50.558;7.258;2023-11-22T06:02:35;15.95;;;7.97;;
82000;SDS011;71510;50.558;7.258;2023-11-22T06:05:05;18.75;;;10.00;;
82000;SDS011;71510;50.558;7.258;2023-11-22T06:07:33;14.45;;;8.28;;
82000;SDS011;71510;50.558;7.258;2023-11-22T06:10:00;10.32;;;8.33;;
82000;SDS011;71510;50.558;7.258;2023-11-22T06:12:29;18.95;;;9.23;;
82000;SDS011;71510;50.558;7.258;2023-11-22T06:14:56;18.80;;;7.40;;
82000;SDS011;71510;50.558;7.258;2023-11-22T06:17:23;10.05;;;7.30;;
82000;SDS011;71510;50.558;7.258;2023-11-22T06:19:51;13.60;;;6.78;;
82000;SDS011;71510;50.558;7.258;2023-11-22T06:22:18;12.85;;;7.17;;
82000;SDS011;71510;50.558;7.258;2023-11-22T06:24:45;10.23;;;7.40;;
82000;SDS011;71510;50.558;7.258;2023-11-22T06:27:14;12.20;;;8.53;;
82000;SDS011;71510;50.558;7.258;2023-11-22T06:29:42;14.35;;;8.70;;
82000;SDS011;71510;50.558;7.258;2023-11-22T06:32:13;15.03;;;8.33;;
82000;SDS011;71510;50.558;7.258;2023-11-22T06:34:40;15.32;;;9.93;;
82000;SDS011;71510;50.558;7.258;2023-11-22T06:37:08;19.57;;;11.18;;
82000;SDS011;71510;50.558;7.258;2023-11-22T06:39:35;16.57;;;10.32;;
82000;SDS011;71510;50.558;7.258;2023-11-22T06:42:03;19.20;;;11.22;;
82000;SDS011;71510;50.558;7.258;2023-11-22T06:44:31;15.90;;;9.35;;
82000;SDS011;71510;50.558;7.258;2023-11-22T06:46:58;16.90;;;8.13;;
82000;SDS011;71510;50.558;7.258;2023-11-22T06:49:25;9.68;;;7.45;;
82000;SDS011;71510;50.558;7.258;2023-11-22T06:51:53;8.50;;;6.72;;
82000;SDS011;71510;50.558;7.258;2023-11-22T06:54:20;11.85;;;7.62;;
82000;SDS011;71510;50.558;7.258;2023-11-22T06:56:47;8.55;;;6.28;;
82000;SDS011;71510;50.558;7.258;2023-11-22T06:59:16;13.15;;;6.92;;
82000;SDS011;71510;50.558;7.258;2023-11-22T07:01:44;15.58;;;8.35;;
82000;SDS011;71510;50.558;7.258;2023-11-22T07:04:11;15.63;;;7.62;;
82000;SDS011;71510;50.558;7.258;2023-11-22T07:06:39;21.02;;;7.97;;
82000;SDS011;71510;50.558;7.258;2023-11-22T07:09:06;11.75;;;6.53;;
82000;SDS011;71510;50.558;7.258;2023-11-22T07:11:36;19.50;;;8.53;;
82000;SDS011;71510;50.558;7.258;2023-11-22T07:14:04;11.25;;;6.92;;
82000;SDS011;71510;50.558;7.258;2023-11-22T07:16:32;9.25;;;6.15;;
82000;SDS011;71510;50.558;7.258;2023-11-22T07:19:00;11.20;;;5.85;;
82000;SDS011;71510;50.558;7.258;2023-11-22T07:21:29;7.22;;;5.67;;
82000;SDS011;71510;50.558;7.258;2023-11-22T07:23:59;8.48;;;6.17;;
82000;SDS011;71510;50.558;7.258;2023-11-22T07:26:26;11.75;;;6.10;;
82000;SDS011;71510;50.558;7.258;2023-11-22T07:28:53;9.18;;;6.10;;
82000;SDS011;71510;50.558;7.258;2023-11-22T07:31:21;10.28;;;6.35;;
82000;SDS011;71510;50.558;7.258;2023-11-22T07:33:49;10.28;;;6.37;;
82000;SDS011;71510;50.558;7.258;2023-11-22T07:36:16;12.50;;;7.65;;
82000;SDS011;71510;50.558;7.258;2023-11-22T07:38:44;17.23;;;6.62;;
82000;SDS011;71510;50.558;7.258;2023-11-22T07:41:11;12.88;;;6.62;;
82000;SDS011;71510;50.558;7.258;2023-11-22T07:43:38;13.50;;;6.87;;
82000;SDS011;71510;50.558;7.258;2023-11-22T07:46:06;8.73;;;5.33;;
82000;SDS011;71510;50.558;7.258;2023-11-22T07:48:35;11.12;;;8.65;;
82000;SDS011;71510;50.558;7.258;2023-11-22T07:51:03;8.28;;;6.67;;
82000;SDS011;71510;50.558;7.258;2023-11-22T07:53:32;13.28;;;7.33;;
82000;SDS011;71510;50.558;7.258;2023-11-22T07:56:00;10.23;;;6.47;;
82000;SDS011;71510;50.558;7.258;2023-11-22T07:58:34;11.15;;;5.90;;
82000;SDS011;71510;50.558;7.258;2023-11-22T08:01:02;9.25;;;5.97;;
82000;SDS011;71510;50.558;7.258;2023-11-22T08:03:31;14.60;;;6.25;;
82000;SDS011;71510;50.558;7.258;2023-11-22T08:05:58;7.87;;;6.10;;
82000;SDS011;71510;50.558;7.258;2023-11-22T08:08:26;7.78;;;5.45;;
82000;SDS011;71510;50.558;7.258;2023-11-22T08:10:53;7.17;;;5.30;;
82000;SDS011;71510;50.558;7.258;2023-11-22T08:13:22;5.65;;;4.35;;
82000;SDS011;71510;50.558;7.258;2023-11-22T08:15:49;9.70;;;4.55;;
82000;SDS011;71510;50.558;7.258;2023-11-22T08:18:17;7.78;;;4.20;;
82000;SDS011;71510;50.558;7.258;2023-11-22T08:20:44;10.32;;;4.47;;
82000;SDS011;71510;50.558;7.258;2023-11-22T08:23:12;22.30;;;5.58;;
82000;SDS011;71510;50.558;7.258;2023-11-22T08:25:41;4.40;;;3.67;;
82000;SDS011;71510;50.558;7.258;2023-11-22T08:28:08;6.35;;;4.42;;
82000;SDS011;71510;50.558;7.258;2023-11-22T08:30:35;8.73;;;4.42;;
82000;SDS011;71510;50.558;7.258;2023-11-22T08:33:03;5.08;;;3.92;;
82000;SDS011;71510;50.558;7.258;2023-11-22T08:35:30;6.58;;;4.03;;
82000;SDS011;71510;50.558;7.258;2023-11-22T08:37:58;12.47;;;4.55;;
82000;SDS011;71510;50.558;7.258;2023-11-22T08:40:27;6.60;;;4.15;;
82000;SDS011;71510;50.558;7.258;2023-11-22T08:42:55;6.75;;;3.92;;
82000;SDS011;71510;50.558;7.258;2023-11-22T08:45:22;5.65;;;3.30;;
82000;SDS011;71510;50.558;7.258;2023-11-22T08:47:49;4.75;;;4.03;;
82000;SDS011;71510;50.558;7.258;2023-11-22T08:50:17;4.95;;;3.15;;
82000;SDS011;71510;50.558;7.258;2023-11-22T08:52:44;3.95;;;3.12;;
82000;SDS011;71510;50.558;7.258;2023-11-22T08:55:13;3.35;;;3.00;;
82000;SDS011;71510;50.558;7.258;2023-11-22T08:57:40;18.98;;;3.72;;
82000;SDS011;71510;50.558;7.258;2023-11-22T09:00:08;3.77;;;2.55;;
82000;SDS011;71510;50.558;7.258;2023-11-22T09:02:36;3.08;;;2.27;;
82000;SDS011;71510;50.558;7.258;2023-11-22T09:05:03;5.70;;;2.40;;
82000;SDS011;71510;50.558;7.258;2023-11-22T09:07:32;3.17;;;2.20;;
82000;SDS011;71510;50.558;7.258;2023-11-22T09:10:02;5.65;;;2.47;;
82000;SDS011;71510;50.558;7.258;2023-11-22T09:12:31;2.47;;;2.00;;
82000;SDS011;71510;50.558;7.258;2023-11-22T09:14:58;10.13;;;2.30;;
82000;SDS011;71510;50.558;7.258;2023-11-22T09:17:25;5.87;;;2.77;;
82000;SDS011;71510;50.558;7.258;2023-11-22T09:19:53;5.40;;;2.15;;
82000;SDS011;71510;50.558;7.258;2023-11-22T09:22:22;4.83;;;2.10;;
82000;SDS011;71510;50.558;7.258;2023-11-22T09:24:51;4.47;;;2.20;;
82000;SDS011;71510;50.558;7.258;2023-11-22T09:27:18;7.22;;;2.50;;
82000;SDS011;71510;50.558;7.258;2023-11-22T09:29:46;7.83;;;2.12;;
82000;SDS011;71510;50.558;7.258;2023-11-22T09:32:14;5.40;;;2.35;;
82000;SDS011;71510;50.558;7.258;2023-11-22T09:34:42;4.03;;;1.98;;
82000;SDS011;71510;50.558;7.258;2023-11-22T09:37:10;15.53;;;2.70;;
82000;SDS011;71510;50.558;7.258;2023-11-22T09:39:37;13.08;;;2.37;;
82000;SDS011;71510;50.558;7.258;2023-11-22T09:42:05;1.72;;;0.70;;
82000;SDS011;71510;50.558;7.258;2023-11-22T09:44:32;1.45;;;0.95;;
82000;SDS011;71510;50.558;7.258;2023-11-22T09:47:00;18.42;;;2.20;;
82000;SDS011;71510;50.558;7.258;2023-11-22T09:49:27;6.83;;;1.60;;
82000;SDS011;71510;50.558;7.258;2023-11-22T09:51:56;5.65;;;1.70;;
82000;SDS011;71510;50.558;7.258;2023-11-22T09:54:25;4.70;;;2.20;;
82000;SDS011;71510;50.558;7.258;2023-11-22T09:56:56;1.70;;;1.15;;
82000;SDS011;71510;50.558;7.258;2023-11-22T09:59:24;2.72;;;1.40;;
82000;SDS011;71510;50.558;7.258;2023-11-22T10:01:51;4.83;;;1.55;;
82000;SDS011;71510;50.558;7.258;2023-11-22T10:04:19;2.05;;;1.30;;
82000;SDS011;71510;50.558;7.258;2023-11-22T10:06:46;2.00;;;1.20;;
82000;SDS011;71510;50.558;7.258;2023-11-22T10:09:14;3.58;;;1.15;;
82000;SDS011;71510;50.558;7.258;2023-11-22T10:11:41;2.98;;;1.12;;
82000;SDS011;71510;50.558;7.258;2023-11-22T10:14:09;3.90;;;1.62;;
82000;SDS011;71510;50.558;7.258;2023-11-22T10:16:37;2.05;;;0.88;;
82000;SDS011;71510;50.558;7.258;2023-11-22T10:19:04;4.25;;;0.82;;
82000;SDS011;71510;50.558;7.258;2023-11-22T10:21:33;22.90;;;2.95;;
82000;SDS011;71510;50.558;7.258;2023-11-22T10:24:01;14.53;;;2.10;;
82000;SDS011;71510;50.558;7.258;2023-11-22T10:26:29;4.45;;;1.62;;
82000;SDS011;71510;50.558;7.258;2023-11-22T10:28:56;3.58;;;1.30;;
82000;SDS011;71510;50.558;7.258;2023-11-22T10:31:24;2.45;;;1.00;;
82000;SDS011;71510;50.558;7.258;2023-11-22T10:33:51;3.10;;;1.25;;
82000;SDS011;71510;50.558;7.258;2023-11-22T10:36:19;5.03;;;1.30;;
82000;SDS011;71510;50.558;7.258;2023-11-22T10:38:48;3.17;;;1.00;;
82000;SDS011;71510;50.558;7.258;2023-11-22T10:41:17;14.47;;;1.85;;
82000;SDS011;71510;50.558;7.258;2023-11-22T10:43:45;13.08;;;1.75;;
82000;SDS011;71510;50.558;7.258;2023-11-22T10:46:13;1.32;;;0.80;;
82000;SDS011;71510;50.558;7.258;2023-11-22T10:48:40;3.65;;;1.27;;
82000;SDS011;71510;50.558;7.258;2023-11-22T10:51:08;1.35;;;0.93;;
82000;SDS011;71510;50.558;7.258;2023-11-22T10:53:36;3.98;;;1.15;;
82000;SDS011;71510;50.558;7.258;2023-11-22T10:58:35;9.60;;;1.10;;
82000;SDS011;71510;50.558;7.258;2023-11-22T11:01:04;2.60;;;0.80;;
82000;SDS011;71510;50.558;7.258;2023-11-22T11:03:33;1.65;;;0.90;;
82000;SDS011;71510;50.558;7.258;2023-11-22T11:06:03;1.60;;;0.90;;
82000;SDS011;71510;50.558;7.258;2023-11-22T11:08:31;4.30;;;1.65;;
82000;SDS011;71510;50.558;7.258;2023-11-22T11:11:00;1.77;;;0.62;;
82000;SDS011;71510;50.558;7.258;2023-11-22T11:13:29;1.00;;;0.80;;
82000;SDS011;71510;50.558;7.258;2023-11-22T11:15:57;2.08;;;1.17;;
82000;SDS011;71510;50.558;7.258;2023-11-22T11:18:24;2.42;;;0.80;;
82000;SDS011;71510;50.558;7.258;2023-11-22T11:20:57;3.47;;;0.93;;
82000;SDS011;71510;50.558;7.258;2023-11-22T11:23:26;1.47;;;0.85;;
82000;SDS011;71510;50.558;7.258;2023-11-22T11:25:54;2.10;;;0.90;;
82000;SDS011;71510;50.558;7.258;2023-11-22T11:28:25;1.70;;;1.15;;
82000;SDS011;71510;50.558;7.258;2023-11-22T11:30:53;2.62;;;1.22;;
82000;SDS011;71510;50.558;7.258;2023-11-22T11:33:27;2.47;;;1.10;;
82000;SDS011;71510;50.558;7.258;2023-11-22T11:35:56;3.98;;;1.07;;
82000;SDS011;71510;50.558;7.258;2023-11-22T11:38:26;1.10;;;0.93;;
82000;SDS011;71510;50.558;7.258;2023-11-22T11:40:52;1.17;;;0.80;;
82000;SDS011;71510;50.558;7.258;2023-11-22T11:43:22;2.72;;;1.12;;
82000;SDS011;71510;50.558;7.258;2023-11-22T11:45:50;2.42;;;1.20;;
82000;SDS011;71510;50.558;7.258;2023-11-22T11:48:19;2.92;;;1.02;;
82000;SDS011;71510;50.558;7.258;2023-11-22T11:50:46;0.80;;;0.75;;
82000;SDS011;71510;50.558;7.258;2023-11-22T11:53:14;0.50;;;0.50;;
82000;SDS011;71510;50.558;7.258;2023-11-22T11:55:42;2.12;;;0.90;;
82000;SDS011;71510;50.558;7.258;2023-11-22T11:58:11;0.90;;;0.80;;
82000;SDS011;71510;50.558;7.258;2023-11-22T12:00:39;1.32;;;0.75;;
82000;SDS011;71510;50.558;7.258;2023-11-22T12:03:09;1.03;;;0.83;;
82000;SDS011;71510;50.558;7.258;2023-11-22T12:05:37;3.30;;;1.00;;
82000;SDS011;71510;50.558;7.258;2023-11-22T12:08:05;0.75;;;0.72;;
82000;SDS011;71510;50.558;7.258;2023-11-22T12:10:32;1.37;;;0.62;;
82000;SDS011;71510;50.558;7.258;2023-11-22T12:12:59;0.72;;;0.60;;
82000;SDS011;71510;50.558;7.258;2023-11-22T12:15:27;9.18;;;1.02;;
82000;SDS011;71510;50.558;7.258;2023-11-22T12:17:55;1.40;;;0.80;;
82000;SDS011;71510;50.558;7.258;2023-11-22T12:20:23;2.67;;;0.60;;
82000;SDS011;71510;50.558;7.258;2023-11-22T12:22:52;4.83;;;0.90;;
82000;SDS011;71510;50.558;7.258;2023-11-22T12:25:19;3.52;;;0.98;;
82000;SDS011;71510;50.558;7.258;2023-11-22T12:27:47;25.88;;;2.05;;
82000;SDS011;71510;50.558;7.258;2023-11-22T12:30:34;1.55;;;0.95;;
82000;SDS011;71510;50.558;7.258;2023-11-22T12:33:05;3.60;;;0.90;;
82000;SDS011;71510;50.558;7.258;2023-11-22T12:35:36;8.70;;;1.42;;
82000;SDS011;71510;50.558;7.258;2023-11-22T12:38:05;5.15;;;1.10;;
82000;SDS011;71510;50.558;7.258;2023-11-22T12:40:33;1.95;;;1.22;;
82000;SDS011;71510;50.558;7.258;2023-11-22T12:43:01;5.12;;;1.12;;
82000;SDS011;71510;50.558;7.258;2023-11-22T12:45:30;1.98;;;1.00;;
82000;SDS011;71510;50.558;7.258;2023-11-22T12:48:23;1.35;;;0.90;;
82000;SDS011;71510;50.558;7.258;2023-11-22T12:50:47;0.88;;;0.82;;
82000;SDS011;71510;50.558;7.258;2023-11-22T12:53:15;1.37;;;0.95;;
82000;SDS011;71510;50.558;7.258;2023-11-22T12:55:42;1.12;;;1.02;;
82000;SDS011;71510;50.558;7.258;2023-11-22T12:58:18;6.67;;;1.17;;
82000;SDS011;71510;50.558;7.258;2023-11-22T13:00:45;5.90;;;0.90;;
82000;SDS011;71510;50.558;7.258;2023-11-22T13:03:13;6.25;;;1.17;;
82000;SDS011;71510;50.558;7.258;2023-11-22T13:05:41;2.15;;;0.98;;
82000;SDS011;71510;50.558;7.258;2023-11-22T13:08:13;6.40;;;1.07;;
82000;SDS011;71510;50.558;7.258;2023-11-22T13:10:44;2.10;;;1.02;;
82000;SDS011;71510;50.558;7.258;2023-11-22T13:13:13;2.52;;;0.90;;
82000;SDS011;71510;50.558;7.258;2023-11-22T13:15:40;1.47;;;0.80;;
82000;SDS011;71510;50.558;7.258;2023-11-22T13:18:08;6.30;;;1.17;;
82000;SDS011;71510;50.558;7.258;2023-11-22T13:20:35;2.17;;;1.05;;
82000;SDS011;71510;50.558;7.258;2023-11-22T13:23:04;1.98;;;0.95;;
82000;SDS011;71510;50.558;7.258;2023-11-22T13:25:32;2.27;;;1.00;;
82000;SDS011;71510;50.558;7.258;2023-11-22T13:27:59;17.80;;;1.75;;
82000;SDS011;71510;50.558;7.258;2023-11-22T13:30:26;7.25;;;1.32;;
82000;SDS011;71510;50.558;7.258;2023-11-22T13:32:55;2.72;;;0.90;;
82000;SDS011;71510;50.558;7.258;2023-11-22T13:35:25;1.98;;;1.17;;
82000;SDS011;71510;50.558;7.258;2023-11-22T13:37:58;3.00;;;0.98;;
82000;SDS011;71510;50.558;7.258;2023-11-22T13:40:25;1.67;;;0.75;;
82000;SDS011;71510;50.558;7.258;2023-11-22T13:42:53;1.30;;;1.10;;
82000;SDS011;71510;50.558;7.258;2023-11-22T13:45:21;7.30;;;1.60;;
82000;SDS011;71510;50.558;7.258;2023-11-22T13:47:49;7.87;;;1.27;;
82000;SDS011;71510;50.558;7.258;2023-11-22T13:50:37;2.30;;;0.90;;
82000;SDS011;71510;50.558;7.258;2023-11-22T13:53:04;8.55;;;1.70;;
82000;SDS011;71510;50.558;7.258;2023-11-22T13:55:32;2.58;;;0.90;;
82000;SDS011;71510;50.558;7.258;2023-11-22T13:57:59;0.82;;;0.80;;
82000;SDS011;71510;50.558;7.258;2023-11-22T14:00:27;3.50;;;1.20;;
82000;SDS011;71510;50.558;7.258;2023-11-22T14:03:18;1.80;;;1.12;;
82000;SDS011;71510;50.558;7.258;2023-11-22T14:05:47;1.70;;;1.10;;
82000;SDS011;71510;50.558;7.258;2023-11-22T14:08:15;1.27;;;0.90;;
82000;SDS011;71510;50.558;7.258;2023-11-22T14:10:42;2.70;;;0.90;;
82000;SDS011;71510;50.558;7.258;2023-11-22T14:13:11;2.10;;;1.07;;
82000;SDS011;71510;50.558;7.258;2023-11-22T14:15:38;6.10;;;0.80;;
82000;SDS011;71510;50.558;7.258;2023-11-22T14:18:05;26.27;;;3.02;;
82000;SDS011;71510;50.558;7.258;2023-11-22T14:20:33;5.50;;;1.20;;
82000;SDS011;71510;50.558;7.258;2023-11-22T14:23:01;1.20;;;0.82;;
82000;SDS011;71510;50.558;7.258;2023-11-22T14:25:28;2.85;;;1.15;;
82000;SDS011;71510;50.558;7.258;2023-11-22T14:27:57;5.60;;;1.00;;
82000;SDS011;71510;50.558;7.258;2023-11-22T14:30:25;18.17;;;2.02;;
82000;SDS011;71510;50.558;7.258;2023-11-22T14:32:54;4.33;;;1.00;;
82000;SDS011;71510;50.558;7.258;2023-11-22T14:35:21;5.53;;;1.35;;
82000;SDS011;71510;50.558;7.258;2023-11-22T14:37:49;7.28;;;0.95;;
82000;SDS011;71510;50.558;7.258;2023-11-22T14:40:18;2.27;;;1.00;;
82000;SDS011;71510;50.558;7.258;2023-11-22T14:42:46;3.27;;;0.93;;
82000;SDS011;71510;50.558;7.258;2023-11-22T14:45:18;1.62;;;1.00;;
82000;SDS011;71510;50.558;7.258;2023-11-22T14:47:48;2.25;;;0.88;;
82000;SDS011;71510;50.558;7.258;2023-11-22T14:50:17;1.67;;;1.02;;